sensor_id;sensor_type;location;lat;lon;timestamp;pressure;altitude;pressure_sealevel;temperature;humidity
70229;BME280;57617;51.988;5.854;2022-10-15T00:01:22;100312.28;;;14.89;78.51
70229;BME280;57617;51.988;5.854;2022-10-15T00:03:47;100313.38;;;14.88;78.37
70229;BME280;57617;51.988;5.854;2022-10-15T00:06:15;100323.75;;;14.86;78.42
70229;BME280;57617;51.988;5.854;2022-10-15T00:08:41;100321.59;;;14.83;78.11
70229;BME280;57617;51.988;5.854;2022-10-15T00:11:28;100320.78;;;14.83;77.89
70229;BME280;57617;51.988;5.854;2022-10-15T00:13:56;100324.09;;;14.80;77.85
70229;BME280;57617;51.988;5.854;2022-10-15T00:16:24;100320.78;;;14.78;77.89
70229;BME280;57617;51.988;5.854;2022-10-15T00:18:50;100317.56;;;14.71;77.87
70229;BME280;57617;51.988;5.854;2022-10-15T00:21:18;100316.72;;;14.70;78.13
70229;BME280;57617;51.988;5.854;2022-10-15T00:23:44;100301.44;;;14.64;77.87
70229;BME280;57617;51.988;5.854;2022-10-15T00:26:13;100313.72;;;14.67;77.73
70229;BME280;57617;51.988;5.854;2022-10-15T00:28:39;100318.94;;;14.63;77.53
70229;BME280;57617;51.988;5.854;2022-10-15T00:31:07;100324.69;;;14.57;77.27
70229;BME280;57617;51.988;5.854;2022-10-15T00:33:33;100321.44;;;14.55;77.43
70229;BME280;57617;51.988;5.854;2022-10-15T00:36:11;100317.34;;;14.52;77.56
70229;BME280;57617;51.988;5.854;2022-10-15T00:38:37;100320.09;;;14.52;77.25
70229;BME280;57617;51.988;5.854;2022-10-15T00:41:04;100319.00;;;14.48;77.44
70229;BME280;57617;51.988;5.854;2022-10-15T00:48:47;100315.19;;;14.39;77.55
70229;BME280;57617;51.988;5.854;2022-10-15T00:51:15;100319.28;;;14.42;77.81
70229;BME280;57617;51.988;5.854;2022-10-15T00:53:42;100324.75;;;14.42;77.55
70229;BME280;57617;51.988;5.854;2022-10-15T00:56:07;100313.03;;;14.41;77.71
70229;BME280;57617;51.988;5.854;2022-10-15T00:58:33;100311.34;;;14.40;77.74
70229;BME280;57617;51.988;5.854;2022-10-15T01:01:01;100313.81;;;14.42;77.62
70229;BME280;57617;51.988;5.854;2022-10-15T01:03:26;100310.81;;;14.43;77.48
70229;BME280;57617;51.988;5.854;2022-10-15T01:05:52;100314.06;;;14.45;77.76
70229;BME280;57617;51.988;5.854;2022-10-15T01:08:18;100314.63;;;14.47;77.32
70229;BME280;57617;51.988;5.854;2022-10-15T01:13:35;100308.91;;;14.49;77.46
70229;BME280;57617;51.988;5.854;2022-10-15T01:16:15;100312.97;;;14.51;77.49
70229;BME280;57617;51.988;5.854;2022-10-15T01:18:53;100312.16;;;14.51;77.56
70229;BME280;57617;51.988;5.854;2022-10-15T01:21:31;100308.84;;;14.54;77.34
70229;BME280;57617;51.988;5.854;2022-10-15T01:32:25;100299.28;;;14.56;77.67
70229;BME280;57617;51.988;5.854;2022-10-15T01:35:31;100292.16;;;14.60;77.69
70229;BME280;57617;51.988;5.854;2022-10-15T01:38:06;100287.53;;;14.61;77.57
70229;BME280;57617;51.988;5.854;2022-10-15T01:40:49;100294.34;;;14.63;77.67
70229;BME280;57617;51.988;5.854;2022-10-15T01:43:23;100270.59;;;14.54;77.50
70229;BME280;57617;51.988;5.854;2022-10-15T01:45:55;100289.97;;;14.67;77.36
70229;BME280;57617;51.988;5.854;2022-10-15T01:48:24;100282.28;;;14.69;77.75
70229;BME280;57617;51.988;5.854;2022-10-15T01:50:54;100293.22;;;14.69;77.86
70229;BME280;57617;51.988;5.854;2022-10-15T01:53:24;100287.75;;;14.69;77.93
70229;BME280;57617;51.988;5.854;2022-10-15T01:55:55;100282.00;;;14.71;77.65
70229;BME280;57617;51.988;5.854;2022-10-15T01:58:22;100280.06;;;14.71;77.75
70229;BME280;57617;51.988;5.854;2022-10-15T02:00:51;100278.44;;;14.70;77.77
70229;BME280;57617;51.988;5.854;2022-10-15T02:03:17;100277.66;;;14.70;77.61
70229;BME280;57617;51.988;5.854;2022-10-15T02:05:52;100253.59;;;14.67;78.15
70229;BME280;57617;51.988;5.854;2022-10-15T02:08:27;100269.97;;;14.72;77.98
70229;BME280;57617;51.988;5.854;2022-10-15T02:11:06;100266.72;;;14.70;77.71
70229;BME280;57617;51.988;5.854;2022-10-15T02:21:55;100265.88;;;14.69;77.86
70229;BME280;57617;51.988;5.854;2022-10-15T02:24:27;100261.53;;;14.68;77.69
70229;BME280;57617;51.988;5.854;2022-10-15T02:26:57;100259.34;;;14.65;77.84
70229;BME280;57617;51.988;5.854;2022-10-15T02:29:26;100260.97;;;14.66;78.12
70229;BME280;57617;51.988;5.854;2022-10-15T02:31:55;100255.50;;;14.66;77.99
70229;BME280;57617;51.988;5.854;2022-10-15T02:34:25;100257.16;;;14.67;78.25
70229;BME280;57617;51.988;5.854;2022-10-15T02:36:52;100254.69;;;14.66;77.75
70229;BME280;57617;51.988;5.854;2022-10-15T02:39:20;100250.63;;;14.58;77.70
70229;BME280;57617;51.988;5.854;2022-10-15T02:41:48;100248.44;;;14.60;77.98
70229;BME280;57617;51.988;5.854;2022-10-15T02:44:14;100245.16;;;14.58;78.11
70229;BME280;57617;51.988;5.854;2022-10-15T02:46:39;100238.88;;;14.58;78.08
70229;BME280;57617;51.988;5.854;2022-10-15T02:49:04;100240.81;;;14.57;78.15
70229;BME280;57617;51.988;5.854;2022-10-15T02:51:31;100246.78;;;14.59;78.37
70229;BME280;57617;51.988;5.854;2022-10-15T02:53:57;100238.59;;;14.59;77.97
70229;BME280;57617;51.988;5.854;2022-10-15T02:56:22;100238.31;;;14.61;77.95
70229;BME280;57617;51.988;5.854;2022-10-15T02:58:47;100234.22;;;14.58;78.16
70229;BME280;57617;51.988;5.854;2022-10-15T03:01:12;100231.50;;;14.58;77.13
70229;BME280;57617;51.988;5.854;2022-10-15T03:03:38;100229.88;;;14.57;77.97
70229;BME280;57617;51.988;5.854;2022-10-15T03:06:03;100218.09;;;14.57;77.61
70229;BME280;57617;51.988;5.854;2022-10-15T03:08:30;100213.47;;;14.57;78.05
70229;BME280;57617;51.988;5.854;2022-10-15T03:10:55;100213.47;;;14.57;77.87
70229;BME280;57617;51.988;5.854;2022-10-15T03:13:23;100211.81;;;14.56;77.99
70229;BME280;57617;51.988;5.854;2022-10-15T03:15:48;100210.19;;;14.55;77.86
70229;BME280;57617;51.988;5.854;2022-10-15T03:18:14;100204.72;;;14.55;78.11
70229;BME280;57617;51.988;5.854;2022-10-15T03:20:39;100210.75;;;14.57;77.76
70229;BME280;57617;51.988;5.854;2022-10-15T03:23:05;100206.66;;;14.55;77.67
70229;BME280;57617;51.988;5.854;2022-10-15T03:25:30;100205.81;;;14.54;78.07
70229;BME280;57617;51.988;5.854;2022-10-15T03:27:55;100210.47;;;14.54;77.83
70229;BME280;57617;51.988;5.854;2022-10-15T03:30:21;100205.81;;;14.54;78.25
70229;BME280;57617;51.988;5.854;2022-10-15T03:32:46;100205.28;;;14.57;77.98
70229;BME280;57617;51.988;5.854;2022-10-15T03:35:12;100203.06;;;14.59;77.86
70229;BME280;57617;51.988;5.854;2022-10-15T03:37:37;100194.88;;;14.59;77.94
70229;BME280;57617;51.988;5.854;2022-10-15T03:40:02;100186.94;;;14.58;78.06
70229;BME280;57617;51.988;5.854;2022-10-15T03:42:28;100186.38;;;14.61;77.94
70229;BME280;57617;51.988;5.854;2022-10-15T03:44:53;100192.09;;;14.64;78.30
70229;BME280;57617;51.988;5.854;2022-10-15T03:47:18;100197.28;;;14.66;78.00
70229;BME280;57617;51.988;5.854;2022-10-15T03:49:44;100188.81;;;14.67;78.21
70229;BME280;57617;51.988;5.854;2022-10-15T03:52:09;100183.88;;;14.69;78.52
70229;BME280;57617;51.988;5.854;2022-10-15T03:54:34;100178.94;;;14.71;77.62
70229;BME280;57617;51.988;5.854;2022-10-15T03:57:00;100187.69;;;14.73;78.23
70229;BME280;57617;51.988;5.854;2022-10-15T03:59:25;100185.75;;;14.74;77.98
70229;BME280;57617;51.988;5.854;2022-10-15T04:01:50;100198.63;;;14.73;78.05
70229;BME280;57617;51.988;5.854;2022-10-15T04:04:15;100200.25;;;14.74;78.12
70229;BME280;57617;51.988;5.854;2022-10-15T04:06:41;100197.78;;;14.73;78.05
70229;BME280;57617;51.988;5.854;2022-10-15T04:09:08;100188.50;;;14.69;77.93
70229;BME280;57617;51.988;5.854;2022-10-15T04:11:34;100200.81;;;14.71;78.21
70229;BME280;57617;51.988;5.854;2022-10-15T04:13:59;100165.66;;;14.55;78.23
70229;BME280;57617;51.988;5.854;2022-10-15T04:16:24;100194.53;;;14.71;78.07
70229;BME280;57617;51.988;5.854;2022-10-15T04:18:50;100193.69;;;14.70;78.34
70229;BME280;57617;51.988;5.854;2022-10-15T04:21:15;100198.06;;;14.71;78.18
70229;BME280;57617;51.988;5.854;2022-10-15T04:23:40;100204.38;;;14.72;78.40
70229;BME280;57617;51.988;5.854;2022-10-15T04:26:06;100207.94;;;14.72;78.17
70229;BME280;57617;51.988;5.854;2022-10-15T04:28:31;100207.63;;;14.74;78.00
70229;BME280;57617;51.988;5.854;2022-10-15T04:30:58;100205.19;;;14.72;78.21
70229;BME280;57617;51.988;5.854;2022-10-15T04:33:23;100211.47;;;14.73;78.06
70229;BME280;57617;51.988;5.854;2022-10-15T04:36:07;100209.28;;;14.75;78.16
70229;BME280;57617;51.988;5.854;2022-10-15T04:38:33;100210.34;;;14.74;78.24
70229;BME280;57617;51.988;5.854;2022-10-15T04:41:00;100213.09;;;14.74;78.11
70229;BME280;57617;51.988;5.854;2022-10-15T04:43:26;100219.09;;;14.76;78.22
70229;BME280;57617;51.988;5.854;2022-10-15T04:45:55;100211.19;;;14.74;78.30
70229;BME280;57617;51.988;5.854;2022-10-15T04:48:20;100204.88;;;14.74;78.14
70229;BME280;57617;51.988;5.854;2022-10-15T04:50:45;100198.63;;;14.73;78.49
70229;BME280;57617;51.988;5.854;2022-10-15T04:53:11;100201.88;;;14.75;78.37
70229;BME280;57617;51.988;5.854;2022-10-15T04:55:36;100200.75;;;14.76;78.48
70229;BME280;57617;51.988;5.854;2022-10-15T04:58:01;100199.69;;;14.77;78.51
70229;BME280;57617;51.988;5.854;2022-10-15T05:00:26;100189.56;;;14.78;78.43
70229;BME280;57617;51.988;5.854;2022-10-15T05:02:52;100196.38;;;14.80;78.58
70229;BME280;57617;51.988;5.854;2022-10-15T05:05:17;100197.47;;;14.79;78.79
70229;BME280;57617;51.988;5.854;2022-10-15T05:07:42;100201.56;;;14.82;78.74
70229;BME280;57617;51.988;5.854;2022-10-15T05:10:08;100201.81;;;14.85;78.68
70229;BME280;57617;51.988;5.854;2022-10-15T05:12:33;100199.91;;;14.86;78.39
70229;BME280;57617;51.988;5.854;2022-10-15T05:14:58;100196.06;;;14.87;78.51
70229;BME280;57617;51.988;5.854;2022-10-15T05:17:24;100199.63;;;14.87;78.59
70229;BME280;57617;51.988;5.854;2022-10-15T05:19:49;100204.00;;;14.88;78.39
70229;BME280;57617;51.988;5.854;2022-10-15T05:22:14;100204.00;;;14.88;78.54
70229;BME280;57617;51.988;5.854;2022-10-15T05:24:39;100206.44;;;14.90;78.42
70229;BME280;57617;51.988;5.854;2022-10-15T05:27:05;100205.34;;;14.91;78.38
70229;BME280;57617;51.988;5.854;2022-10-15T05:29:30;100210.53;;;14.92;78.85
70229;BME280;57617;51.988;5.854;2022-10-15T05:31:55;100204.50;;;14.90;78.78
70229;BME280;57617;51.988;5.854;2022-10-15T05:34:21;100210.25;;;14.89;78.72
70229;BME280;57617;51.988;5.854;2022-10-15T05:36:46;100215.44;;;14.90;79.07
70229;BME280;57617;51.988;5.854;2022-10-15T05:39:11;100211.09;;;14.89;78.97
70229;BME280;57617;51.988;5.854;2022-10-15T05:41:38;100211.09;;;14.89;78.96
70229;BME280;57617;51.988;5.854;2022-10-15T05:44:03;100212.44;;;14.92;79.14
70229;BME280;57617;51.988;5.854;2022-10-15T05:46:28;100206.69;;;14.93;79.01
70229;BME280;57617;51.988;5.854;2022-10-15T05:48:55;100208.03;;;14.96;79.08
70229;BME280;57617;51.988;5.854;2022-10-15T05:51:21;100214.56;;;15.00;79.25
70229;BME280;57617;51.988;5.854;2022-10-15T05:53:53;100224.13;;;15.02;78.83
70229;BME280;57617;51.988;5.854;2022-10-15T05:56:19;100223.84;;;15.04;78.76
70229;BME280;57617;51.988;5.854;2022-10-15T05:58:45;100230.13;;;15.04;78.87
70229;BME280;57617;51.988;5.854;2022-10-15T06:01:11;100216.22;;;15.01;78.95
70229;BME280;57617;51.988;5.854;2022-10-15T06:03:38;100220.00;;;15.05;78.94
70229;BME280;57617;51.988;5.854;2022-10-15T06:06:04;100221.09;;;15.04;79.08
70229;BME280;57617;51.988;5.854;2022-10-15T06:08:36;100227.13;;;15.06;79.18
70229;BME280;57617;51.988;5.854;2022-10-15T06:11:02;100220.81;;;15.05;78.94
70229;BME280;57617;51.988;5.854;2022-10-15T06:13:28;100214.84;;;15.03;79.26
70229;BME280;57617;51.988;5.854;2022-10-15T06:15:53;100219.75;;;15.01;79.34
70229;BME280;57617;51.988;5.854;2022-10-15T06:18:18;100223.03;;;15.03;79.34
70229;BME280;57617;51.988;5.854;2022-10-15T06:20:49;100221.69;;;15.01;79.52
70229;BME280;57617;51.988;5.854;2022-10-15T06:23:15;100217.00;;;15.01;79.77
70229;BME280;57617;51.988;5.854;2022-10-15T06:25:40;100214.84;;;15.03;79.74
70229;BME280;57617;51.988;5.854;2022-10-15T06:28:06;100211.25;;;15.03;79.72
70229;BME280;57617;51.988;5.854;2022-10-15T06:30:31;100206.63;;;15.03;79.88
70229;BME280;57617;51.988;5.854;2022-10-15T06:32:57;100207.41;;;15.04;79.74
70229;BME280;57617;51.988;5.854;2022-10-15T06:35:23;100210.94;;;15.09;79.69
70229;BME280;57617;51.988;5.854;2022-10-15T06:37:49;100213.41;;;15.11;79.88
70229;BME280;57617;51.988;5.854;2022-10-15T06:40:15;100214.22;;;15.11;79.78
70229;BME280;57617;51.988;5.854;2022-10-15T06:42:41;100216.16;;;15.11;80.09
70229;BME280;57617;51.988;5.854;2022-10-15T06:45:07;100212.03;;;15.13;80.13
70229;BME280;57617;51.988;5.854;2022-10-15T06:47:35;100214.44;;;15.15;80.05
70229;BME280;57617;51.988;5.854;2022-10-15T06:50:00;100215.56;;;15.14;79.95
70229;BME280;57617;51.988;5.854;2022-10-15T06:52:28;100214.44;;;15.15;79.96
70229;BME280;57617;51.988;5.854;2022-10-15T06:54:53;100218.00;;;15.15;80.33
70229;BME280;57617;51.988;5.854;2022-10-15T06:57:19;100224.84;;;15.18;80.31
70229;BME280;57617;51.988;5.854;2022-10-15T06:59:44;100214.13;;;15.21;80.20
70229;BME280;57617;51.988;5.854;2022-10-15T07:02:09;100214.72;;;15.18;80.16
70229;BME280;57617;51.988;5.854;2022-10-15T07:04:35;100215.75;;;15.22;80.11
70229;BME280;57617;51.988;5.854;2022-10-15T07:07:00;100209.72;;;15.25;80.26
70229;BME280;57617;51.988;5.854;2022-10-15T07:09:25;100215.44;;;15.29;80.17
70229;BME280;57617;51.988;5.854;2022-10-15T07:11:51;100214.06;;;15.31;80.15
70229;BME280;57617;51.988;5.854;2022-10-15T07:14:16;100216.00;;;15.31;80.33
70229;BME280;57617;51.988;5.854;2022-10-15T07:16:42;100219.28;;;15.33;80.40
70229;BME280;57617;51.988;5.854;2022-10-15T07:19:07;100225.59;;;15.33;80.13
70229;BME280;57617;51.988;5.854;2022-10-15T07:21:32;100222.25;;;15.31;80.22
70229;BME280;57617;51.988;5.854;2022-10-15T07:23:58;100219.53;;;15.31;80.51
70229;BME280;57617;51.988;5.854;2022-10-15T07:26:25;100235.41;;;15.34;80.29
70229;BME280;57617;51.988;5.854;2022-10-15T07:28:52;100229.94;;;15.34;80.39
70229;BME280;57617;51.988;5.854;2022-10-15T07:31:17;100228.56;;;15.37;80.47
70229;BME280;57617;51.988;5.854;2022-10-15T07:33:43;100230.19;;;15.38;80.40
70229;BME280;57617;51.988;5.854;2022-10-15T07:36:09;100223.31;;;15.40;80.39
70229;BME280;57617;51.988;5.854;2022-10-15T07:38:37;100221.09;;;15.42;80.60
70229;BME280;57617;51.988;5.854;2022-10-15T07:41:04;100220.81;;;15.44;80.36
70229;BME280;57617;51.988;5.854;2022-10-15T07:43:30;100219.72;;;15.45;80.04
70229;BME280;57617;51.988;5.854;2022-10-15T07:45:55;100213.97;;;15.46;80.49
70229;BME280;57617;51.988;5.854;2022-10-15T07:48:21;100220.25;;;15.47;80.30
70229;BME280;57617;51.988;5.854;2022-10-15T07:50:55;100213.44;;;15.44;80.43
70229;BME280;57617;51.988;5.854;2022-10-15T07:53:21;100211.22;;;15.46;80.28
70229;BME280;57617;51.988;5.854;2022-10-15T07:55:46;100208.50;;;15.46;80.67
70229;BME280;57617;51.988;5.854;2022-10-15T07:58:12;100203.25;;;15.50;80.54
70229;BME280;57617;51.988;5.854;2022-10-15T08:00:37;100211.19;;;15.51;80.58
70229;BME280;57617;51.988;5.854;2022-10-15T08:03:02;100213.34;;;15.54;80.34
70229;BME280;57617;51.988;5.854;2022-10-15T08:05:28;100215.78;;;15.56;80.57
70229;BME280;57617;51.988;5.854;2022-10-15T08:07:53;100209.75;;;15.59;80.65
70229;BME280;57617;51.988;5.854;2022-10-15T08:10:18;100218.19;;;15.62;80.69
70229;BME280;57617;51.988;5.854;2022-10-15T08:12:43;100218.75;;;15.64;80.50
70229;BME280;57617;51.988;5.854;2022-10-15T08:15:09;100218.97;;;15.68;80.54
70229;BME280;57617;51.988;5.854;2022-10-15T08:17:34;100217.81;;;15.74;80.74
70229;BME280;57617;51.988;5.854;2022-10-15T08:20:00;100205.19;;;15.78;80.56
70229;BME280;57617;51.988;5.854;2022-10-15T08:22:25;100209.50;;;15.84;80.62
70229;BME280;57617;51.988;5.854;2022-10-15T08:24:50;100209.72;;;15.87;80.72
70229;BME280;57617;51.988;5.854;2022-10-15T08:27:16;100184.56;;;15.85;80.71
70229;BME280;57617;51.988;5.854;2022-10-15T08:29:42;100192.13;;;15.93;80.73
70229;BME280;57617;51.988;5.854;2022-10-15T08:32:07;100194.28;;;15.96;80.72
70229;BME280;57617;51.988;5.854;2022-10-15T08:34:32;100195.28;;;16.05;81.26
70229;BME280;57617;51.988;5.854;2022-10-15T08:36:58;100186.19;;;16.10;81.00
70229;BME280;57617;51.988;5.854;2022-10-15T08:39:23;100181.75;;;16.14;80.91
70229;BME280;57617;51.988;5.854;2022-10-15T08:41:54;100175.47;;;16.13;80.49
70229;BME280;57617;51.988;5.854;2022-10-15T08:44:30;100172.38;;;16.20;80.92
70229;BME280;57617;51.988;5.854;2022-10-15T08:49:49;100173.50;;;16.37;80.69
70229;BME280;57617;51.988;5.854;2022-10-15T08:52:22;100165.25;;;16.42;80.74
70229;BME280;57617;51.988;5.854;2022-10-15T08:54:49;100176.09;;;16.52;80.75
70229;BME280;57617;51.988;5.854;2022-10-15T09:00:34;100167.78;;;16.58;80.62
70229;BME280;57617;51.988;5.854;2022-10-15T09:06:18;100163.19;;;16.71;80.11
70229;BME280;57617;51.988;5.854;2022-10-15T09:14:28;100160.97;;;16.73;79.71
70229;BME280;57617;51.988;5.854;2022-10-15T09:16:58;100156.81;;;16.76;79.67
70229;BME280;57617;51.988;5.854;2022-10-15T09:19:27;100158.16;;;16.78;79.47
70229;BME280;57617;51.988;5.854;2022-10-15T09:21:53;100158.16;;;16.78;79.56
70229;BME280;57617;51.988;5.854;2022-10-15T09:24:21;100143.13;;;16.76;79.13
70229;BME280;57617;51.988;5.854;2022-10-15T09:26:59;100146.06;;;16.79;79.19
70229;BME280;57617;51.988;5.854;2022-10-15T09:32:18;100139.53;;;16.75;79.09
70229;BME280;57617;51.988;5.854;2022-10-15T09:34:56;100137.41;;;16.73;78.98
70229;BME280;57617;51.988;5.854;2022-10-15T09:42:44;100127.44;;;16.76;78.85
70229;BME280;57617;51.988;5.854;2022-10-15T09:45:13;100115.06;;;16.79;78.78
70229;BME280;57617;51.988;5.854;2022-10-15T09:47:41;100124.13;;;16.79;78.66
70229;BME280;57617;51.988;5.854;2022-10-15T09:50:10;100123.00;;;16.80;78.75
70229;BME280;57617;51.988;5.854;2022-10-15T09:55:41;100120.72;;;16.88;78.60
70229;BME280;57617;51.988;5.854;2022-10-15T09:58:39;100107.28;;;16.86;78.18
70229;BME280;57617;51.988;5.854;2022-10-15T10:01:07;100122.84;;;16.90;78.41
70229;BME280;57617;51.988;5.854;2022-10-15T10:03:40;100117.97;;;16.88;78.34
70229;BME280;57617;51.988;5.854;2022-10-15T10:06:13;100115.75;;;16.89;78.50
70229;BME280;57617;51.988;5.854;2022-10-15T10:08:45;100114.41;;;16.87;78.33
70229;BME280;57617;51.988;5.854;2022-10-15T10:11:11;100095.50;;;16.85;78.36
70229;BME280;57617;51.988;5.854;2022-10-15T10:13:49;100109.81;;;16.83;78.62
70229;BME280;57617;51.988;5.854;2022-10-15T10:16:17;100094.78;;;16.80;78.88
70229;BME280;57617;51.988;5.854;2022-10-15T10:19:00;100090.91;;;16.81;78.85
70229;BME280;57617;51.988;5.854;2022-10-15T10:21:33;100102.69;;;16.81;79.33
70229;BME280;57617;51.988;5.854;2022-10-15T10:26:43;100094.88;;;16.75;79.49
70229;BME280;57617;51.988;5.854;2022-10-15T10:29:11;100097.00;;;16.78;79.54
70229;BME280;57617;51.988;5.854;2022-10-15T10:31:41;100092.63;;;16.77;79.34
70229;BME280;57617;51.988;5.854;2022-10-15T10:34:13;100091.78;;;16.76;79.73
70229;BME280;57617;51.988;5.854;2022-10-15T10:36:40;100092.41;;;16.73;79.64
70229;BME280;57617;51.988;5.854;2022-10-15T10:41:59;100092.91;;;16.75;80.70
70229;BME280;57617;51.988;5.854;2022-10-15T10:47:17;100088.84;;;16.73;81.08
70229;BME280;57617;51.988;5.854;2022-10-15T10:49:53;100081.22;;;16.70;80.42
70229;BME280;57617;51.988;5.854;2022-10-15T10:55:15;100073.44;;;16.58;81.30
70229;BME280;57617;51.988;5.854;2022-10-15T10:57:54;100066.84;;;16.59;81.17
70229;BME280;57617;51.988;5.854;2022-10-15T11:00:34;100082.56;;;16.73;80.77
70229;BME280;57617;51.988;5.854;2022-10-15T11:03:02;100080.59;;;16.73;80.61
70229;BME280;57617;51.988;5.854;2022-10-15T11:05:30;100085.81;;;16.74;80.88
70229;BME280;57617;51.988;5.854;2022-10-15T11:08:17;100085.31;;;16.73;81.06
70229;BME280;57617;51.988;5.854;2022-10-15T11:10:53;100075.41;;;16.71;81.23
70229;BME280;57617;51.988;5.854;2022-10-15T11:18:47;100070.47;;;16.73;81.33
70229;BME280;57617;51.988;5.854;2022-10-15T11:40:46;100048.78;;;16.90;82.14
70229;BME280;57617;51.988;5.854;2022-10-15T11:46:26;100051.13;;;16.97;82.38
70229;BME280;57617;51.988;5.854;2022-10-15T11:52:16;100045.84;;;17.00;82.36
70229;BME280;57617;51.988;5.854;2022-10-15T11:57:22;100035.91;;;17.04;81.76
70229;BME280;57617;51.988;5.854;2022-10-15T11:59:55;100029.81;;;17.07;81.95
70229;BME280;57617;51.988;5.854;2022-10-15T12:02:32;100040.19;;;17.10;82.27
70229;BME280;57617;51.988;5.854;2022-10-15T12:05:20;100032.97;;;17.14;82.63
70229;BME280;57617;51.988;5.854;2022-10-15T12:07:52;100039.28;;;17.15;82.10
70229;BME280;57617;51.988;5.854;2022-10-15T12:13:13;100029.63;;;17.17;82.69
70229;BME280;57617;51.988;5.854;2022-10-15T12:16:09;100020.50;;;17.22;82.56
70229;BME280;57617;51.988;5.854;2022-10-15T12:18:42;100015.81;;;17.22;82.36
70229;BME280;57617;51.988;5.854;2022-10-15T12:23:57;100017.66;;;17.27;82.21
70229;BME280;57617;51.988;5.854;2022-10-15T12:28:54;100027.13;;;17.34;82.35
70229;BME280;57617;51.988;5.854;2022-10-15T12:31:20;100022.94;;;17.37;82.42
70229;BME280;57617;51.988;5.854;2022-10-15T12:33:49;100017.19;;;17.39;82.40
70229;BME280;57617;51.988;5.854;2022-10-15T12:36:29;100015.78;;;17.41;82.79
70229;BME280;57617;51.988;5.854;2022-10-15T12:39:04;100011.91;;;17.42;82.77
70229;BME280;57617;51.988;5.854;2022-10-15T12:41:36;100014.66;;;17.42;82.92
70229;BME280;57617;51.988;5.854;2022-10-15T12:44:23;100015.66;;;17.46;83.24
70229;BME280;57617;51.988;5.854;2022-10-15T12:46:49;100015.66;;;17.46;82.65
70229;BME280;57617;51.988;5.854;2022-10-15T12:51:56;100011.59;;;17.57;82.89
70229;BME280;57617;51.988;5.854;2022-10-15T12:54:39;100018.06;;;17.61;83.22
70229;BME280;57617;51.988;5.854;2022-10-15T13:02:48;100015.66;;;17.73;82.72
70229;BME280;57617;51.988;5.854;2022-10-15T13:05:32;100010.34;;;17.77;83.33
70229;BME280;57617;51.988;5.854;2022-10-15T13:08:01;100012.97;;;17.82;82.78
70229;BME280;57617;51.988;5.854;2022-10-15T13:10:32;100022.84;;;17.83;83.00
70229;BME280;57617;51.988;5.854;2022-10-15T13:13:02;100024.16;;;17.85;83.18
70229;BME280;57617;51.988;5.854;2022-10-15T13:15:29;100026.22;;;17.93;83.12
70229;BME280;57617;51.988;5.854;2022-10-15T13:17:56;100022.22;;;17.99;83.26
70229;BME280;57617;51.988;5.854;2022-10-15T13:20:38;100015.47;;;18.05;83.44
70229;BME280;57617;51.988;5.854;2022-10-15T13:23:18;100016.81;;;18.08;83.03
70229;BME280;57617;51.988;5.854;2022-10-15T13:25:46;100018.59;;;18.12;82.95
70229;BME280;57617;51.988;5.854;2022-10-15T13:30:52;100015.44;;;18.18;83.28
70229;BME280;57617;51.988;5.854;2022-10-15T13:33:18;100020.34;;;18.22;82.88
70229;BME280;57617;51.988;5.854;2022-10-15T13:35:43;100020.34;;;18.22;83.20
70229;BME280;57617;51.988;5.854;2022-10-15T13:38:36;100021.84;;;18.27;83.26
70229;BME280;57617;51.988;5.854;2022-10-15T13:41:02;100030.09;;;18.27;83.04
70229;BME280;57617;51.988;5.854;2022-10-15T13:43:28;100023.47;;;18.28;83.11
70229;BME280;57617;51.988;5.854;2022-10-15T13:48:22;100030.56;;;18.29;82.76
70229;BME280;57617;51.988;5.854;2022-10-15T13:50:51;100031.41;;;18.30;82.89
70229;BME280;57617;51.988;5.854;2022-10-15T13:53:24;100034.69;;;18.32;82.94
70229;BME280;57617;51.988;5.854;2022-10-15T13:55:53;100028.34;;;18.32;83.01
70229;BME280;57617;51.988;5.854;2022-10-15T13:58:27;100029.38;;;18.36;82.85
70229;BME280;57617;51.988;5.854;2022-10-15T14:01:07;100041.38;;;18.40;82.97
70229;BME280;57617;51.988;5.854;2022-10-15T14:03:34;100038.75;;;18.35;82.88
70229;BME280;57617;51.988;5.854;2022-10-15T14:06:17;100042.63;;;18.34;82.67
70229;BME280;57617;51.988;5.854;2022-10-15T14:08:44;100047.91;;;18.30;82.78
70229;BME280;57617;51.988;5.854;2022-10-15T14:11:11;100058.72;;;18.27;82.53
70229;BME280;57617;51.988;5.854;2022-10-15T14:13:45;100065.94;;;18.23;82.50
70229;BME280;57617;51.988;5.854;2022-10-15T14:16:16;100083.97;;;18.15;82.38
70229;BME280;57617;51.988;5.854;2022-10-15T14:18:49;100080.03;;;18.08;82.13
70229;BME280;57617;51.988;5.854;2022-10-15T14:21:18;100083.69;;;18.03;82.31
70229;BME280;57617;51.988;5.854;2022-10-15T14:23:45;100096.91;;;18.01;82.53
70229;BME280;57617;51.988;5.854;2022-10-15T14:26:12;100097.22;;;17.99;82.36
70229;BME280;57617;51.988;5.854;2022-10-15T14:28:38;100089.59;;;17.97;82.64
70229;BME280;57617;51.988;5.854;2022-10-15T14:31:04;100077.00;;;17.96;82.32
70229;BME280;57617;51.988;5.854;2022-10-15T14:33:31;100088.19;;;17.99;82.38
70229;BME280;57617;51.988;5.854;2022-10-15T14:36:26;100091.13;;;18.02;81.86
70229;BME280;57617;51.988;5.854;2022-10-15T14:38:53;100092.25;;;18.02;82.26
70229;BME280;57617;51.988;5.854;2022-10-15T14:44:05;100100.38;;;18.07;81.94
70229;BME280;57617;51.988;5.854;2022-10-15T14:46:38;100107.50;;;18.08;82.28
70229;BME280;57617;51.988;5.854;2022-10-15T14:49:14;100109.66;;;18.11;82.23
70229;BME280;57617;51.988;5.854;2022-10-15T14:51:40;100111.28;;;18.12;82.34
70229;BME280;57617;51.988;5.854;2022-10-15T14:54:12;100117.56;;;18.12;82.14
70229;BME280;57617;51.988;5.854;2022-10-15T14:56:43;100114.03;;;18.12;82.18
70229;BME280;57617;51.988;5.854;2022-10-15T14:59:15;100115.66;;;18.13;82.01